University, Nevada
Current Conditions -  °F | °C
As of 1:55 AM on Tuesday 21 Oct 2014 (Local Time) from KRNO Reporting Station
Few Clouds Few Clouds  
Wind Chill: 45°   Ceiling: Unl
Heat Index: 48°   Visibility: 10mi
Dew Point: 28°   Wind: 6mph
Humidity: 46%   Direction: 260°W
Pressure: 30.04"   Gusts: 17mph
Location:  39.5468°N, 119.815°W
Report Text: KRNO 210855Z 26005G15KT 10SM FEW070 09/M02 A3004 RMK AO2 SLP134 60000 T00891022 51016
Loading
Personal Weather Stations






























Interactive Weather Map
Tropical Storm Tracking
New forecast layout! Learn more

10-Day Weather Forecast

Advertisements
Track Severe Weather on mobile